Time;durP1;ratioP1;P1;durP2;ratioP2;P2;SDS_P1;SDS_P2;PMS_P1;PMS_P2;Temp;Humidity;BMP_temperature;BMP_pressure;BME280_temperature;BME280_humidity;BME280_pressure;Samples;Min_cycle;Max_cycle;Signal;HPM_P1;HPM_P2
2023/04/01 00:00:39;;;;;;;2.08;1.17;;;;;;;;;;5024971;28;20025;-76
2023/04/01 00:03:27;;;;;;;2.28;0.70;;;;;;;;;;5028793;28;20396;-77
2023/04/01 00:06:14;;;;;;;2.75;1.10;;;;;;;;;;5028706;28;20025;-71
2023/04/01 00:08:59;;;;;;;3.63;0.70;;;;;;;;;;5028548;28;20038;-71
2023/04/01 00:11:45;;;;;;;1.92;1.10;;;;;;;;;;5024470;28;20095;-71
2023/04/01 00:14:30;;;;;;;2.80;0.60;;;;;;;;;;5026698;28;20025;-72
2023/04/01 00:17:15;;;;;;;1.40;0.85;;;;;;;;;;5026259;28;20384;-69
2023/04/01 00:20:02;;;;;;;1.58;0.85;;;;;;;;;;5028586;28;20123;-73
2023/04/01 00:22:47;;;;;;;2.13;1.00;;;;;;;;;;5015700;28;20159;-87
2023/04/01 00:25:33;;;;;;;4.65;1.58;;;;;;;;;;5034178;28;20103;-89
2023/04/01 00:28:18;;;;;;;2.40;0.90;;;;;;;;;;5048190;28;20060;-88
2023/04/01 00:31:07;;;;;;;1.77;0.80;;;;;;;;;;5033128;28;20491;-90
2023/04/01 00:33:53;;;;;;;3.87;1.53;;;;;;;;;;5033338;28;20032;-89
2023/04/01 00:36:38;;;;;;;2.00;0.90;;;;;;;;;;5030704;28;20338;-88
2023/04/01 00:39:23;;;;;;;4.20;0.90;;;;;;;;;;5029259;28;20535;-75
2023/04/01 00:42:08;;;;;;;2.85;0.82;;;;;;;;;;5015232;28;20044;-82
2023/04/01 00:44:54;;;;;;;6.45;1.00;;;;;;;;;;5016388;28;20384;-81
2023/04/01 00:47:39;;;;;;;2.47;0.80;;;;;;;;;;5027030;28;20068;-80
2023/04/01 00:50:25;;;;;;;3.53;1.20;;;;;;;;;;5025699;28;20033;-80
2023/04/01 00:53:11;;;;;;;4.93;1.33;;;;;;;;;;5033387;28;20025;-81
2023/04/01 00:56:10;;;;;;;2.63;2.05;;;;;;;;;;5027091;28;20098;-74
2023/04/01 00:58:58;;;;;;;3.13;0.88;;;;;;;;;;5025363;28;20434;-74
2023/04/01 01:01:43;;;;;;;3.92;1.00;;;;;;;;;;5037337;28;20060;-90
2023/04/01 01:04:30;;;;;;;3.28;1.38;;;;;;;;;;5039153;28;20028;-89
2023/04/01 01:07:15;;;;;;;3.08;1.02;;;;;;;;;;5035301;28;20552;-89
2023/04/01 01:10:19;;;;;;;3.60;1.13;;;;;;;;;;5034225;28;20072;-90
2023/04/01 01:13:31;;;;;;;1.80;0.80;;;;;;;;;;5034602;28;20399;-89
2023/04/01 01:16:20;;;;;;;3.97;0.95;;;;;;;;;;5041283;28;20038;-70
2023/04/01 01:19:24;;;;;;;5.30;0.80;;;;;;;;;;5029286;28;20049;-86
2023/04/01 01:22:10;;;;;;;2.42;0.90;;;;;;;;;;5014108;28;20104;-87
2023/04/01 01:25:15;;;;;;;2.20;0.82;;;;;;;;;;5030986;28;20392;-87
2023/04/01 01:28:09;;;;;;;4.65;1.40;;;;;;;;;;5051137;28;20033;-89
2023/04/01 01:30:57;;;;;;;4.80;2.05;;;;;;;;;;5043293;28;20025;-87
2023/04/01 01:33:54;;;;;;;2.40;0.93;;;;;;;;;;5027900;28;20032;-83
2023/04/01 01:36:42;;;;;;;4.18;1.23;;;;;;;;;;5027410;28;21724;-70
2023/04/01 01:39:30;;;;;;;5.00;1.48;;;;;;;;;;5023649;28;20116;-68
2023/04/01 01:42:16;;;;;;;3.58;0.82;;;;;;;;;;5026421;28;20030;-69
2023/04/01 01:45:02;;;;;;;3.88;1.30;;;;;;;;;;5017652;28;20028;-69
2023/04/01 01:47:48;;;;;;;2.25;1.10;;;;;;;;;;5027811;28;20025;-67
2023/04/01 01:50:35;;;;;;;4.45;1.08;;;;;;;;;;5028158;28;20536;-69
2023/04/01 01:53:20;;;;;;;4.50;1.23;;;;;;;;;;5026663;28;20090;-78
2023/04/01 01:56:05;;;;;;;2.67;1.10;;;;;;;;;;5025671;28;20041;-74
2023/04/01 01:58:52;;;;;;;3.05;1.17;;;;;;;;;;5009473;28;20052;-73
2023/04/01 02:01:40;;;;;;;4.68;1.00;;;;;;;;;;5020944;28;20049;-76
2023/04/01 02:04:25;;;;;;;1.95;0.90;;;;;;;;;;5026342;28;20104;-75
2023/04/01 02:07:13;;;;;;;4.05;1.90;;;;;;;;;;5024987;28;20037;-74
2023/04/01 02:09:59;;;;;;;1.65;0.77;;;;;;;;;;5024811;28;20550;-74
2023/04/01 02:12:46;;;;;;;3.33;0.80;;;;;;;;;;5024306;28;20041;-75
2023/04/01 02:15:33;;;;;;;2.25;0.80;;;;;;;;;;5040215;28;20025;-74
2023/04/01 02:18:18;;;;;;;2.72;0.70;;;;;;;;;;5026322;28;20033;-73
2023/04/01 02:21:04;;;;;;;1.80;0.80;;;;;;;;;;5026766;28;20039;-74
2023/04/01 02:23:50;;;;;;;2.42;0.88;;;;;;;;;;5026252;28;20033;-76
2023/04/01 02:26:35;;;;;;;1.38;0.90;;;;;;;;;;5022367;28;20033;-74
2023/04/01 02:29:22;;;;;;;2.25;0.88;;;;;;;;;;5025248;28;20025;-81
2023/04/01 02:32:08;;;;;;;4.20;1.00;;;;;;;;;;5008037;28;20044;-75
2023/04/01 02:34:54;;;;;;;0.85;0.68;;;;;;;;;;5025819;28;20021;-75
2023/04/01 02:37:43;;;;;;;4.15;0.93;;;;;;;;;;5026405;28;20035;-77
2023/04/01 02:40:28;;;;;;;1.70;0.70;;;;;;;;;;5020234;28;20031;-74
2023/04/01 02:43:14;;;;;;;0.75;0.60;;;;;;;;;;5026727;28;20037;-75
2023/04/01 02:45:59;;;;;;;2.53;0.63;;;;;;;;;;5027058;28;20495;-73
2023/04/01 02:48:44;;;;;;;2.17;1.70;;;;;;;;;;5025956;28;20136;-87
2023/04/01 02:51:29;;;;;;;3.40;1.50;;;;;;;;;;5025452;28;20033;-76
2023/04/01 02:54:15;;;;;;;0.50;0.47;;;;;;;;;;5025902;28;20029;-75
2023/04/01 02:57:00;;;;;;;0.63;0.60;;;;;;;;;;5024519;28;20033;-74
2023/04/01 02:59:45;;;;;;;1.45;0.70;;;;;;;;;;5025860;28;20124;-77
2023/04/01 03:02:30;;;;;;;0.68;0.55;;;;;;;;;;5026327;28;20552;-76
2023/04/01 03:05:22;;;;;;;0.70;0.70;;;;;;;;;;5022396;28;20026;-75
2023/04/01 03:08:07;;;;;;;1.20;0.70;;;;;;;;;;5024176;28;20070;-73
2023/04/01 03:10:53;;;;;;;1.55;0.50;;;;;;;;;;5019639;28;20044;-71
2023/04/01 03:13:38;;;;;;;0.40;0.40;;;;;;;;;;5024948;28;20651;-73
2023/04/01 03:16:23;;;;;;;0.57;0.52;;;;;;;;;;5024675;28;20048;-72
2023/04/01 03:19:08;;;;;;;0.60;0.60;;;;;;;;;;5024685;28;20034;-76
2023/04/01 03:21:54;;;;;;;0.80;0.60;;;;;;;;;;5025685;28;20033;-73
2023/04/01 03:24:39;;;;;;;0.80;0.47;;;;;;;;;;5033002;28;20025;-74
2023/04/01 03:27:24;;;;;;;1.08;0.50;;;;;;;;;;5024894;28;20022;-76
2023/04/01 03:30:10;;;;;;;0.90;0.68;;;;;;;;;;5024135;28;20071;-76
2023/04/01 03:32:55;;;;;;;0.70;0.70;;;;;;;;;;5026407;28;20042;-75
2023/04/01 03:35:40;;;;;;;1.45;0.68;;;;;;;;;;5027836;28;20391;-73
2023/04/01 03:38:26;;;;;;;2.05;0.85;;;;;;;;;;5024630;28;20029;-73
2023/04/01 03:41:12;;;;;;;1.33;0.63;;;;;;;;;;5023186;28;20104;-75
2023/04/01 03:43:57;;;;;;;0.65;0.55;;;;;;;;;;5040592;28;20029;-76
2023/04/01 03:46:42;;;;;;;0.60;0.50;;;;;;;;;;5023868;28;20030;-74
2023/04/01 03:49:27;;;;;;;1.83;0.80;;;;;;;;;;5023207;28;20731;-73
2023/04/01 03:52:13;;;;;;;1.63;0.60;;;;;;;;;;5025754;28;20024;-74
2023/04/01 03:54:58;;;;;;;1.98;0.65;;;;;;;;;;5023326;28;20124;-73
2023/04/01 03:57:43;;;;;;;1.58;0.70;;;;;;;;;;5025583;28;20033;-74
2023/04/01 04:00:30;;;;;;;1.40;0.80;;;;;;;;;;5009914;28;20380;-73
2023/04/01 04:03:15;;;;;;;0.50;0.50;;;;;;;;;;5028287;28;20017;-87
2023/04/01 04:06:00;;;;;;;1.55;0.68;;;;;;;;;;5029693;28;20283;-86
2023/04/01 04:08:46;;;;;;;1.35;0.70;;;;;;;;;;5029269;28;20032;-85
2023/04/01 04:11:32;;;;;;;0.93;0.60;;;;;;;;;;5022801;28;20026;-81
2023/04/01 04:14:17;;;;;;;2.70;0.70;;;;;;;;;;5046787;28;20583;-84
2023/04/01 04:17:03;;;;;;;2.60;1.05;;;;;;;;;;5034548;28;20041;-86
2023/04/01 04:19:48;;;;;;;0.63;0.50;;;;;;;;;;5032074;28;20029;-73
2023/04/01 04:22:33;;;;;;;0.70;0.68;;;;;;;;;;5032525;28;20025;-72
2023/04/01 04:25:18;;;;;;;1.05;0.50;;;;;;;;;;5011136;28;20025;-73
2023/04/01 04:28:04;;;;;;;2.65;1.02;;;;;;;;;;5029987;28;20029;-72
2023/04/01 04:30:49;;;;;;;2.15;0.60;;;;;;;;;;5030450;28;20041;-72
2023/04/01 04:33:35;;;;;;;1.15;0.50;;;;;;;;;;5030380;28;20105;-72
2023/04/01 04:36:20;;;;;;;2.05;1.23;;;;;;;;;;5034281;28;20036;-73
2023/04/01 04:39:06;;;;;;;0.77;0.60;;;;;;;;;;5031156;28;20498;-74
2023/04/01 04:41:51;;;;;;;1.27;0.60;;;;;;;;;;5030317;28;20033;-74
2023/04/01 04:44:36;;;;;;;3.40;0.70;;;;;;;;;;5019565;28;20033;-73
2023/04/01 04:47:21;;;;;;;0.40;0.40;;;;;;;;;;5010947;28;20439;-73
2023/04/01 04:50:07;;;;;;;2.20;0.60;;;;;;;;;;5027676;28;20038;-74
2023/04/01 04:52:52;;;;;;;1.65;0.52;;;;;;;;;;5029910;28;20092;-73
2023/04/01 04:55:42;;;;;;;0.85;0.85;;;;;;;;;;5043762;28;20029;-73
2023/04/01 04:58:27;;;;;;;1.08;0.52;;;;;;;;;;5044083;28;20032;-71
2023/04/01 05:01:13;;;;;;;1.05;0.60;;;;;;;;;;5029700;28;20029;-74
2023/04/01 05:03:59;;;;;;;0.73;0.68;;;;;;;;;;5028894;28;20090;-73
2023/04/01 05:06:47;;;;;;;1.52;0.77;;;;;;;;;;5015453;28;20022;-73
2023/04/01 05:09:33;;;;;;;2.90;0.60;;;;;;;;;;5043651;28;20052;-73
2023/04/01 05:12:18;;;;;;;2.45;0.70;;;;;;;;;;5031337;28;20024;-72
2023/04/01 05:15:04;;;;;;;0.88;0.65;;;;;;;;;;5034138;28;20031;-74
2023/04/01 05:17:50;;;;;;;2.65;0.90;;;;;;;;;;5027735;28;20045;-83
2023/04/01 05:20:35;;;;;;;2.60;0.93;;;;;;;;;;5016698;28;20029;-84
2023/04/01 05:23:21;;;;;;;1.17;0.80;;;;;;;;;;5053774;28;20025;-84
2023/04/01 05:26:08;;;;;;;3.83;0.90;;;;;;;;;;5021397;28;20476;-82
2023/04/01 05:28:54;;;;;;;2.00;0.77;;;;;;;;;;5032077;28;20507;-85
2023/04/01 05:31:39;;;;;;;2.13;0.70;;;;;;;;;;5032991;28;20018;-84
2023/04/01 05:34:24;;;;;;;1.63;1.00;;;;;;;;;;5029767;28;20013;-74
2023/04/01 05:37:10;;;;;;;1.80;0.90;;;;;;;;;;5039285;28;20091;-84
2023/04/01 05:39:55;;;;;;;4.03;1.00;;;;;;;;;;5026457;28;20040;-84
2023/04/01 05:42:40;;;;;;;2.78;1.10;;;;;;;;;;5028732;28;20033;-84
2023/04/01 05:45:26;;;;;;;1.95;0.93;;;;;;;;;;5025798;28;20061;-84
2023/04/01 05:48:11;;;;;;;1.48;0.85;;;;;;;;;;5028275;28;20654;-83
2023/04/01 05:50:56;;;;;;;2.67;0.80;;;;;;;;;;5023932;28;20075;-71
2023/04/01 05:53:42;;;;;;;1.63;1.05;;;;;;;;;;5027737;28;20114;-86
2023/04/01 05:56:27;;;;;;;1.95;1.00;;;;;;;;;;5027982;28;20044;-88
2023/04/01 05:59:13;;;;;;;3.88;1.33;;;;;;;;;;5028232;28;20588;-84
2023/04/01 06:01:58;;;;;;;1.85;0.68;;;;;;;;;;5026172;28;20483;-83
2023/04/01 06:04:43;;;;;;;1.70;0.82;;;;;;;;;;5028651;28;20025;-86
2023/04/01 06:07:28;;;;;;;3.97;1.17;;;;;;;;;;5028624;28;20064;-87
2023/04/01 06:10:18;;;;;;;1.92;0.70;;;;;;;;;;5026988;28;20036;-70
2023/04/01 06:13:03;;;;;;;;;;;;;;;;;;5023439;28;20090;-83
2023/04/01 06:15:56;;;;;;;2.55;1.00;;;;;;;;;;5027782;28;19917;-85
2023/04/01 06:18:49;;;;;;;1.35;0.95;;;;;;;;;;5038749;28;20029;-84
2023/04/01 06:21:35;;;;;;;1.50;0.80;;;;;;;;;;5024764;28;20017;-83
2023/04/01 06:24:39;;;;;;;3.22;1.00;;;;;;;;;;5025365;28;20108;-83
2023/04/01 06:27:43;;;;;;;1.50;1.13;;;;;;;;;;5032093;28;20113;-75
2023/04/01 06:30:31;;;;;;;1.52;0.82;;;;;;;;;;5021586;28;20036;-81
2023/04/01 06:33:29;;;;;;;4.18;0.90;;;;;;;;;;5011104;28;20025;-83
2023/04/01 06:36:18;;;;;;;1.70;0.80;;;;;;;;;;5007384;28;20126;-83
2023/04/01 06:39:09;;;;;;;1.77;1.00;;;;;;;;;;5027379;28;20026;-83
2023/04/01 06:42:06;;;;;;;2.30;0.70;;;;;;;;;;5026174;28;20021;-82
2023/04/01 06:45:24;;;;;;;3.25;1.52;;;;;;;;;;5043457;28;20024;-84
2023/04/01 06:48:17;;;;;;;1.48;0.68;;;;;;;;;;4997891;28;20480;-74
2023/04/01 06:51:19;;;;;;;2.20;1.00;;;;;;;;;;5011721;28;20056;-85
2023/04/01 06:54:04;;;;;;;1.50;0.90;;;;;;;;;;5029050;28;20029;-83
2023/04/01 06:56:55;;;;;;;1.00;0.77;;;;;;;;;;5028561;28;20091;-83
2023/04/01 06:59:40;;;;;;;3.20;0.85;;;;;;;;;;5029709;28;20021;-84
2023/04/01 07:02:32;;;;;;;0.88;0.60;;;;;;;;;;5037160;28;20025;-83
2023/04/01 07:05:17;;;;;;;2.90;0.73;;;;;;;;;;5014700;28;20037;-71
2023/04/01 07:08:04;;;;;;;3.13;1.00;;;;;;;;;;5026440;28;20052;-86
2023/04/01 07:11:06;;;;;;;1.67;0.65;;;;;;;;;;5029542;28;20405;-88
2023/04/01 07:13:57;;;;;;;1.92;0.80;;;;;;;;;;5029771;28;20088;-86
2023/04/01 07:16:51;;;;;;;4.30;1.23;;;;;;;;;;5028973;28;20696;-91
2023/04/01 07:20:00;;;;;;;0.98;0.60;;;;;;;;;;5022674;28;20037;-88
2023/04/01 07:22:48;;;;;;;1.85;0.82;;;;;;;;;;5013584;28;20037;-73
2023/04/01 07:25:35;;;;;;;1.92;0.95;;;;;;;;;;5031262;28;20033;-73
2023/04/01 07:28:22;;;;;;;2.10;0.63;;;;;;;;;;5030258;28;20064;-84
2023/04/01 07:31:07;;;;;;;1.95;0.75;;;;;;;;;;5015726;28;20028;-81
2023/04/01 07:34:11;;;;;;;1.33;0.73;;;;;;;;;;5028204;28;20112;-82
2023/04/01 07:37:06;;;;;;;2.78;0.80;;;;;;;;;;5032722;28;20128;-85
2023/04/01 07:40:10;;;;;;;2.92;1.27;;;;;;;;;;5043489;28;20029;-84
2023/04/01 07:43:14;;;;;;;2.67;0.75;;;;;;;;;;5017225;28;20532;-73
2023/04/01 07:46:05;;;;;;;5.75;0.80;;;;;;;;;;5034309;28;20663;-72
2023/04/01 07:49:17;;;;;;;2.90;0.75;;;;;;;;;;5030804;28;20080;-72
2023/04/01 07:52:20;;;;;;;2.15;0.70;;;;;;;;;;5016954;28;20121;-72
2023/04/01 07:55:23;;;;;;;2.15;1.20;;;;;;;;;;5031169;28;20150;-73
2023/04/01 07:58:09;;;;;;;1.88;0.70;;;;;;;;;;5044592;28;20029;-74
2023/04/01 08:00:54;;;;;;;2.35;0.98;;;;;;;;;;5032964;28;20022;-72
2023/04/01 08:04:04;;;;;;;2.20;0.90;;;;;;;;;;5031293;28;20028;-68
2023/04/01 08:07:06;;;;;;;1.13;0.85;;;;;;;;;;5031584;28;20455;-68
2023/04/01 08:10:10;;;;;;;1.73;0.90;;;;;;;;;;5034697;28;20033;-66
2023/04/01 08:13:05;;;;;;;1.63;0.82;;;;;;;;;;5030752;28;20032;-68
2023/04/01 08:16:10;;;;;;;3.22;1.25;;;;;;;;;;5034820;28;20484;-68
2023/04/01 08:19:04;;;;;;;1.15;0.65;;;;;;;;;;5030558;28;20420;-72
2023/04/01 08:21:52;;;;;;;2.17;0.80;;;;;;;;;;5031017;28;20094;-70
2023/04/01 08:24:44;;;;;;;0.75;0.65;;;;;;;;;;5042506;28;20026;-68
2023/04/01 08:27:41;;;;;;;2.33;0.90;;;;;;;;;;5036744;28;20036;-67
2023/04/01 08:30:40;;;;;;;2.30;0.90;;;;;;;;;;5029659;28;20472;-67
2023/04/01 08:33:29;;;;;;;1.73;0.90;;;;;;;;;;5037821;28;20104;-67
2023/04/01 08:36:15;;;;;;;;;;;;;;;;;;5029617;28;20483;-72
2023/04/01 08:39:10;;;;;;;0.93;0.80;;;;;;;;;;5023335;28;19909;-88
2023/04/01 08:42:16;;;;;;;1.15;0.70;;;;;;;;;;5026074;28;20057;-74
2023/04/01 08:45:01;;;;;;;1.77;0.70;;;;;;;;;;5032966;28;20159;-72
2023/04/01 08:47:52;;;;;;;3.60;0.90;;;;;;;;;;5027191;28;20032;-68
2023/04/01 08:50:52;;;;;;;3.75;1.15;;;;;;;;;;5036970;28;20031;-68
2023/04/01 08:53:41;;;;;;;2.78;1.02;;;;;;;;;;5033107;28;20036;-68
2023/04/01 08:56:28;;;;;;;2.78;0.90;;;;;;;;;;5037109;28;20052;-71
2023/04/01 08:59:32;;;;;;;2.35;0.70;;;;;;;;;;5029102;28;20022;-71
2023/04/01 09:02:32;;;;;;;1.48;0.70;;;;;;;;;;5022261;28;20036;-72
2023/04/01 09:05:56;;;;;;;1.25;0.70;;;;;;;;;;5039026;28;20017;-70
2023/04/01 09:08:47;;;;;;;4.13;1.05;;;;;;;;;;4967109;28;20023;-72
2023/04/01 09:11:58;;;;;;;1.40;1.00;;;;;;;;;;4941835;28;20110;-71
2023/04/01 09:14:46;;;;;;;2.00;0.90;;;;;;;;;;4969431;28;20109;-75
2023/04/01 09:17:50;;;;;;;1.40;0.80;;;;;;;;;;4966245;28;20039;-88
2023/04/01 09:20:44;;;;;;;2.42;0.75;;;;;;;;;;4959234;28;20061;-83
2023/04/01 09:23:48;;;;;;;3.05;0.70;;;;;;;;;;4960338;28;20026;-88
2023/04/01 09:26:36;;;;;;;2.50;1.02;;;;;;;;;;4960465;28;20042;-90
2023/04/01 09:29:40;;;;;;;0.60;0.60;;;;;;;;;;4971160;28;20027;-87
2023/04/01 09:32:25;;;;;;;0.68;0.55;;;;;;;;;;4946769;28;20134;-76
2023/04/01 09:35:19;;;;;;;0.88;0.57;;;;;;;;;;4963447;28;20117;-84
2023/04/01 09:38:17;;;;;;;1.00;0.73;;;;;;;;;;4943055;28;20049;-86
2023/04/01 09:41:21;;;;;;;1.73;0.77;;;;;;;;;;5024635;28;20107;-81
2023/04/01 09:44:10;;;;;;;0.95;0.63;;;;;;;;;;5004909;28;20059;-75
2023/04/01 09:47:20;;;;;;;0.57;0.57;;;;;;;;;;5023928;28;20029;-80
2023/04/01 09:50:24;;;;;;;0.95;0.52;;;;;;;;;;5027773;28;20129;-84
2023/04/01 09:53:18;;;;;;;0.90;0.90;;;;;;;;;;5027821;28;20031;-72
2023/04/01 09:56:13;;;;;;;0.77;0.55;;;;;;;;;;5031209;28;20032;-76
2023/04/01 09:59:04;;;;;;;0.73;0.57;;;;;;;;;;5015455;28;20017;-72
2023/04/01 10:02:18;;;;;;;1.85;0.50;;;;;;;;;;5042070;28;20559;-73
2023/04/01 10:05:24;;;;;;;1.95;1.27;;;;;;;;;;5014706;28;20021;-76
2023/04/01 10:08:28;;;;;;;3.20;1.20;;;;;;;;;;5032908;28;20065;-83
2023/04/01 10:11:32;;;;;;;0.60;0.60;;;;;;;;;;5026706;28;20032;-82
2023/04/01 10:14:29;;;;;;;0.50;0.50;;;;;;;;;;5027210;28;20029;-70
2023/04/01 10:17:33;;;;;;;0.80;0.50;;;;;;;;;;5026525;28;20530;-70
2023/04/01 10:20:37;;;;;;;0.55;0.55;;;;;;;;;;5027266;28;20048;-73
2023/04/01 10:23:35;;;;;;;0.93;0.60;;;;;;;;;;5049364;28;20120;-72
2023/04/01 10:26:32;;;;;;;1.23;0.63;;;;;;;;;;5028133;28;20432;-71
2023/04/01 10:29:17;;;;;;;2.47;1.45;;;;;;;;;;5025707;28;20028;-74
2023/04/01 10:32:12;;;;;;;0.70;0.55;;;;;;;;;;5033155;28;20029;-83
2023/04/01 10:35:18;;;;;;;0.60;0.60;;;;;;;;;;5022894;28;20022;-81
2023/04/01 10:38:28;;;;;;;1.55;0.52;;;;;;;;;;5028457;28;20029;-93
2023/04/01 10:41:17;;;;;;;1.40;0.60;;;;;;;;;;5033010;28;20029;-90
2023/04/01 10:44:25;;;;;;;0.63;0.60;;;;;;;;;;5043756;28;20033;-87
2023/04/01 10:47:23;;;;;;;0.75;0.50;;;;;;;;;;5025523;28;20021;-74
2023/04/01 10:50:20;;;;;;;0.75;0.65;;;;;;;;;;5022109;28;20055;-69
2023/04/01 10:53:05;;;;;;;0.57;0.57;;;;;;;;;;5022227;28;20086;-69
2023/04/01 10:55:59;;;;;;;0.60;0.60;;;;;;;;;;5020026;28;20125;-69
2023/04/01 10:59:04;;;;;;;0.57;0.57;;;;;;;;;;5025271;28;20018;-71
2023/04/01 11:02:12;;;;;;;1.02;0.52;;;;;;;;;;5026536;28;20111;-68
2023/04/01 11:05:16;;;;;;;3.58;0.80;;;;;;;;;;5029436;28;20113;-69
2023/04/01 11:08:20;;;;;;;1.80;0.60;;;;;;;;;;5045419;28;20021;-68
2023/04/01 11:11:26;;;;;;;0.47;0.47;;;;;;;;;;5037896;28;20036;-70
2023/04/01 11:14:26;;;;;;;0.40;0.40;;;;;;;;;;5028149;28;20428;-71
2023/04/01 11:17:32;;;;;;;0.40;0.40;;;;;;;;;;5028627;28;20409;-70
2023/04/01 11:20:28;;;;;;;0.50;0.50;;;;;;;;;;5027532;28;20451;-68
2023/04/01 11:23:23;;;;;;;0.57;0.50;;;;;;;;;;5049687;28;20468;-73
2023/04/01 11:26:22;;;;;;;0.45;0.45;;;;;;;;;;5031548;28;20029;-73
2023/04/01 11:29:25;;;;;;;1.02;0.60;;;;;;;;;;5031359;28;20101;-73
2023/04/01 11:32:34;;;;;;;0.50;0.50;;;;;;;;;;5024325;28;20064;-72
2023/04/01 11:35:28;;;;;;;0.50;0.50;;;;;;;;;;5031578;28;20029;-72
2023/04/01 11:38:32;;;;;;;0.45;0.45;;;;;;;;;;5031195;28;20041;-72
2023/04/01 11:41:30;;;;;;;0.63;0.50;;;;;;;;;;5039143;28;20032;-74
2023/04/01 11:44:29;;;;;;;0.40;0.40;;;;;;;;;;5038223;28;20044;-88
2023/04/01 11:47:33;;;;;;;0.60;0.60;;;;;;;;;;5031387;28;20123;-87
2023/04/01 11:50:22;;;;;;;0.50;0.50;;;;;;;;;;5020291;28;20295;-88
2023/04/01 11:53:27;;;;;;;0.50;0.50;;;;;;;;;;5031826;28;20380;-85
2023/04/01 11:56:18;;;;;;;0.52;0.50;;;;;;;;;;5048810;28;20080;-87
2023/04/01 11:59:12;;;;;;;0.50;0.50;;;;;;;;;;5036053;28;20112;-72
2023/04/01 12:02:10;;;;;;;0.50;0.50;;;;;;;;;;5013911;28;20132;-69
2023/04/01 12:05:07;;;;;;;0.40;0.40;;;;;;;;;;5027732;28;20098;-72
2023/04/01 12:07:57;;;;;;;0.50;0.50;;;;;;;;;;5016406;28;20428;-70
2023/04/01 12:11:09;;;;;;;0.50;0.50;;;;;;;;;;5031949;28;20036;-75
2023/04/01 12:14:03;;;;;;;1.08;0.60;;;;;;;;;;5030479;28;20041;-73
2023/04/01 12:16:56;;;;;;;0.40;0.40;;;;;;;;;;5016324;28;20044;-72
2023/04/01 12:19:48;;;;;;;0.85;0.60;;;;;;;;;;5030176;28;20120;-70
2023/04/01 12:22:35;;;;;;;1.17;0.50;;;;;;;;;;5037953;28;20103;-72
2023/04/01 12:25:26;;;;;;;0.98;0.50;;;;;;;;;;5036558;28;20120;-70
2023/04/01 12:28:17;;;;;;;0.57;0.50;;;;;;;;;;5015288;28;20025;-71
2023/04/01 12:31:23;;;;;;;0.50;0.50;;;;;;;;;;5030196;28;20094;-73
2023/04/01 12:34:18;;;;;;;1.08;0.55;;;;;;;;;;5011737;28;20034;-70
2023/04/01 12:37:09;;;;;;;0.50;0.50;;;;;;;;;;5039432;28;20108;-71
2023/04/01 12:40:14;;;;;;;0.68;0.50;;;;;;;;;;5029563;28;20491;-71
2023/04/01 12:43:05;;;;;;;0.65;0.60;;;;;;;;;;5014370;28;20065;-72
2023/04/01 12:46:08;;;;;;;0.50;0.50;;;;;;;;;;5019989;28;20117;-72
2023/04/01 12:49:09;;;;;;;0.50;0.50;;;;;;;;;;5021881;28;20127;-72
2023/04/01 12:52:00;;;;;;;0.40;0.40;;;;;;;;;;5012218;28;20711;-70
2023/04/01 12:54:58;;;;;;;0.40;0.40;;;;;;;;;;5028867;28;20029;-72
2023/04/01 12:57:43;;;;;;;0.57;0.50;;;;;;;;;;5030437;28;20037;-74
2023/04/01 13:00:28;;;;;;;0.47;0.47;;;;;;;;;;5026394;28;20029;-69
2023/04/01 13:03:32;;;;;;;0.40;0.40;;;;;;;;;;5034535;28;20637;-70
2023/04/01 13:06:36;;;;;;;0.60;0.60;;;;;;;;;;5025381;28;20026;-69
2023/04/01 13:09:24;;;;;;;0.68;0.50;;;;;;;;;;5029281;28;20511;-68
2023/04/01 13:12:32;;;;;;;0.50;0.50;;;;;;;;;;5028255;28;20469;-69
2023/04/01 13:15:38;;;;;;;0.43;0.43;;;;;;;;;;5037468;28;20431;-79
2023/04/01 13:18:26;;;;;;;0.50;0.50;;;;;;;;;;4983404;28;20053;-83
2023/04/01 13:21:31;;;;;;;0.40;0.40;;;;;;;;;;4967542;28;20034;-79
2023/04/01 13:24:22;;;;;;;0.60;0.60;;;;;;;;;;4976001;28;20057;-83
2023/04/01 13:27:26;;;;;;;0.43;0.43;;;;;;;;;;4990563;28;20073;-81
2023/04/01 13:30:20;;;;;;;3.22;0.82;;;;;;;;;;5001010;28;20081;-82
2023/04/01 13:33:08;;;;;;;0.47;0.47;;;;;;;;;;4979195;28;20044;-78
2023/04/01 13:36:02;;;;;;;0.80;0.55;;;;;;;;;;4984327;28;20092;-70
2023/04/01 13:38:51;;;;;;;0.90;0.55;;;;;;;;;;4964855;28;20133;-71
2023/04/01 13:41:42;;;;;;;0.57;0.55;;;;;;;;;;4968790;28;20429;-71
2023/04/01 13:44:37;;;;;;;0.75;0.50;;;;;;;;;;4985397;28;20041;-74
2023/04/01 13:47:40;;;;;;;0.50;0.50;;;;;;;;;;4971723;28;20030;-70
2023/04/01 13:50:29;;;;;;;1.38;0.40;;;;;;;;;;4969590;28;20545;-71
2023/04/01 13:53:32;;;;;;;0.50;0.50;;;;;;;;;;4973569;28;20033;-87
2023/04/01 13:56:30;;;;;;;0.60;0.60;;;;;;;;;;5027315;28;20041;-85
2023/04/01 13:59:34;;;;;;;1.75;0.60;;;;;;;;;;5040241;28;20529;-85
2023/04/01 14:02:51;;;;;;;1.40;0.50;;;;;;;;;;5030026;28;20053;-86
2023/04/01 14:05:40;;;;;;;0.50;0.50;;;;;;;;;;5003801;28;20708;-86
2023/04/01 14:08:44;;;;;;;0.50;0.50;;;;;;;;;;5027139;28;20187;-74
2023/04/01 14:11:29;;;;;;;0.73;0.60;;;;;;;;;;5021631;28;20400;-73
2023/04/01 14:14:26;;;;;;;0.45;0.45;;;;;;;;;;5023897;28;20024;-74
2023/04/01 14:17:26;;;;;;;0.52;0.40;;;;;;;;;;5013829;28;20029;-72
2023/04/01 14:20:30;;;;;;;0.47;0.47;;;;;;;;;;5027511;28;20060;-72
2023/04/01 14:23:25;;;;;;;0.60;0.60;;;;;;;;;;5020178;28;20060;-72
2023/04/01 14:26:10;;;;;;;0.70;0.70;;;;;;;;;;5024793;28;20025;-76
2023/04/01 14:29:05;;;;;;;0.60;0.60;;;;;;;;;;5025666;28;20041;-74
2023/04/01 14:31:59;;;;;;;1.15;0.70;;;;;;;;;;5025503;28;20030;-72
2023/04/01 14:34:55;;;;;;;0.50;0.50;;;;;;;;;;5020629;28;20029;-72
2023/04/01 14:38:00;;;;;;;1.27;0.80;;;;;;;;;;5024225;28;20075;-75
2023/04/01 14:40:45;;;;;;;0.50;0.50;;;;;;;;;;5025775;28;20049;-71
2023/04/01 14:43:34;;;;;;;0.40;0.40;;;;;;;;;;5023208;28;20022;-71
2023/04/01 14:46:38;;;;;;;0.75;0.60;;;;;;;;;;5041912;28;20400;-76
2023/04/01 14:49:37;;;;;;;0.47;0.47;;;;;;;;;;5033083;28;20173;-76
2023/04/01 14:52:31;;;;;;;0.85;0.80;;;;;;;;;;5023776;28;20029;-79
2023/04/01 14:55:35;;;;;;;1.10;0.60;;;;;;;;;;5024213;28;20542;-76
2023/04/01 14:58:22;;;;;;;0.60;0.60;;;;;;;;;;5025664;28;20033;-75
2023/04/01 15:01:16;;;;;;;0.50;0.50;;;;;;;;;;5023116;28;20052;-74
2023/04/01 15:04:10;;;;;;;1.27;0.70;;;;;;;;;;5037799;28;20068;-70
2023/04/01 15:06:59;;;;;;;0.50;0.50;;;;;;;;;;5043707;28;20024;-76
2023/04/01 15:09:50;;;;;;;0.60;0.60;;;;;;;;;;5025481;28;20105;-72
2023/04/01 15:12:44;;;;;;;0.65;0.60;;;;;;;;;;5013317;28;20029;-75
2023/04/01 15:15:40;;;;;;;0.60;0.60;;;;;;;;;;5032484;28;20033;-73
2023/04/01 15:18:32;;;;;;;0.90;0.50;;;;;;;;;;5011340;28;20041;-73
2023/04/01 15:21:36;;;;;;;2.22;0.73;;;;;;;;;;5019442;28;20374;-78
2023/04/01 15:24:24;;;;;;;0.57;0.55;;;;;;;;;;5030977;28;20034;-75
2023/04/01 15:27:28;;;;;;;0.50;0.50;;;;;;;;;;5024472;28;20025;-75
2023/04/01 15:30:18;;;;;;;0.35;0.35;;;;;;;;;;5023792;28;20418;-76
2023/04/01 15:33:15;;;;;;;0.50;0.50;;;;;;;;;;5015809;28;20021;-77
2023/04/01 15:36:09;;;;;;;0.77;0.50;;;;;;;;;;5029584;28;20484;-74
2023/04/01 15:39:02;;;;;;;1.17;0.60;;;;;;;;;;5037770;28;20033;-75
2023/04/01 15:41:57;;;;;;;2.45;0.70;;;;;;;;;;5010896;28;20828;-69
2023/04/01 15:44:45;;;;;;;1.13;0.63;;;;;;;;;;5029173;28;20849;-81
2023/04/01 15:47:37;;;;;;;1.00;0.52;;;;;;;;;;5035356;28;20041;-84
2023/04/01 15:50:22;;;;;;;0.57;0.57;;;;;;;;;;5028926;28;20080;-81
2023/04/01 15:53:25;;;;;;;0.68;0.50;;;;;;;;;;5028950;28;20024;-80
2023/04/01 15:56:11;;;;;;;2.50;0.60;;;;;;;;;;5030882;28;20578;-82
2023/04/01 15:59:04;;;;;;;0.65;0.60;;;;;;;;;;5030403;28;20033;-70
2023/04/01 16:02:00;;;;;;;0.68;0.68;;;;;;;;;;5024911;28;20611;-69
2023/04/01 16:04:45;;;;;;;4.63;0.60;;;;;;;;;;5030003;28;20021;-69
2023/04/01 16:07:46;;;;;;;1.50;0.68;;;;;;;;;;5030448;28;20021;-69
2023/04/01 16:10:34;;;;;;;0.60;0.60;;;;;;;;;;5028105;28;20025;-70
2023/04/01 16:13:23;;;;;;;0.60;0.60;;;;;;;;;;5028790;28;20140;-68
2023/04/01 16:16:29;;;;;;;1.10;0.57;;;;;;;;;;5025639;28;20033;-73
2023/04/01 16:19:33;;;;;;;0.85;0.70;;;;;;;;;;5011494;28;20089;-76
2023/04/01 16:22:21;;;;;;;1.95;0.93;;;;;;;;;;5028159;28;20032;-77
2023/04/01 16:25:34;;;;;;;0.80;0.80;;;;;;;;;;5025842;28;20358;-78
2023/04/01 16:28:32;;;;;;;0.98;0.70;;;;;;;;;;5024370;28;20025;-77
2023/04/01 16:31:24;;;;;;;0.73;0.70;;;;;;;;;;5026381;28;20036;-76
2023/04/01 16:34:15;;;;;;;0.85;0.63;;;;;;;;;;5024208;28;20373;-75
2023/04/01 16:37:33;;;;;;;1.10;1.00;;;;;;;;;;5045262;28;20064;-70
2023/04/01 16:40:36;;;;;;;0.70;0.70;;;;;;;;;;4995078;28;20076;-73
2023/04/01 16:43:27;;;;;;;0.75;0.57;;;;;;;;;;4999264;28;20030;-75
2023/04/01 16:46:20;;;;;;;2.78;1.00;;;;;;;;;;4992980;28;20072;-68
2023/04/01 16:49:11;;;;;;;6.28;1.10;;;;;;;;;;5003506;28;20050;-68
2023/04/01 16:51:59;;;;;;;2.42;0.70;;;;;;;;;;4991774;28;20033;-73
2023/04/01 16:54:47;;;;;;;0.85;0.80;;;;;;;;;;5002628;28;20060;-74
2023/04/01 16:57:43;;;;;;;1.02;0.80;;;;;;;;;;4993344;28;20041;-69
2023/04/01 17:00:40;;;;;;;1.45;0.70;;;;;;;;;;4990005;28;20134;-75
2023/04/01 17:03:29;;;;;;;2.90;0.70;;;;;;;;;;5003681;28;20179;-64
2023/04/01 17:06:20;;;;;;;5.53;1.80;;;;;;;;;;5006474;28;20412;-68
2023/04/01 17:09:31;;;;;;;3.33;1.27;;;;;;;;;;5003109;28;20509;-68
2023/04/01 17:12:16;;;;;;;3.38;1.30;;;;;;;;;;4986289;28;20025;-70
2023/04/01 17:15:21;;;;;;;1.33;0.90;;;;;;;;;;5014505;28;20038;-84